YJP weather

Hinton/Jasper-Hinton Airport
Hinton, Alberta, Canada

Public forecast

Using degrees Celsius for public forecast. Weather courtesy of forecast.io.

Closest aviation weather report (METAR) to Hinton/Jasper-Hinton Airport

Closest report is Edson Airport, 48.6 nm (90.0 km) ENE. Retrieved 2020/04/10 12:30 UTC (28 minutes ago):

CYET 101230Z AUTO 02005KT 9SM -SN OVC060 M00/M03 A3001 RMK SLP191

Closest aviation forecast (TAF) to Hinton/Jasper-Hinton Airport

Forecast is more than 12 hours old.

Closest forecast is Whitecourt Airport, 85.6 nm (158.5 km) NE. Retrieved 2020/04/09 19:00 UTC (18 hours ago):

TAF CYZU 091838Z 0919/0923 29008KT P6SM SCT060 SCT220 TEMPO 0919/0923 BKN060 BKN220 BECMG 0919/0921 29012KT RMK NXT FCST WILL BE ISSUED AT 101415Z